sensor_id;sensor_type;location;lat;lon;timestamp;pressure;altitude;pressure_sealevel;temperature;humidity
32733;BME280;11867;51.198;11.966;2024-03-08T00:02:42;101074.47;;;-0.42;97.78
32733;BME280;11867;51.198;11.966;2024-03-08T00:08:06;101064.94;;;-0.08;95.68
32733;BME280;11867;51.198;11.966;2024-03-08T00:13:32;101062.31;;;0.55;90.39
32733;BME280;11867;51.198;11.966;2024-03-08T00:18:57;101066.22;;;0.24;91.81
32733;BME280;11867;51.198;11.966;2024-03-08T00:24:20;101057.28;;;0.17;91.18
32733;BME280;11867;51.198;11.966;2024-03-08T00:29:46;101054.09;;;0.35;91.31
32733;BME280;11867;51.198;11.966;2024-03-08T00:35:10;101058.91;;;-0.32;93.31
32733;BME280;11867;51.198;11.966;2024-03-08T00:40:34;101048.69;;;0.28;92.31
32733;BME280;11867;51.198;11.966;2024-03-08T00:45:57;101046.47;;;-0.18;95.35
32733;BME280;11867;51.198;11.966;2024-03-08T00:51:21;101048.22;;;-0.10;92.98
32733;BME280;11867;51.198;11.966;2024-03-08T00:56:44;101044.00;;;0.37;92.13
32733;BME280;11867;51.198;11.966;2024-03-08T01:02:08;101036.50;;;0.54;89.69
32733;BME280;11867;51.198;11.966;2024-03-08T01:07:32;101034.84;;;-0.25;94.19
32733;BME280;11867;51.198;11.966;2024-03-08T01:12:55;101017.41;;;0.07;92.08
32733;BME280;11867;51.198;11.966;2024-03-08T01:18:18;101030.41;;;-0.18;92.65
32733;BME280;11867;51.198;11.966;2024-03-08T01:23:45;101012.13;;;0.20;90.42
32733;BME280;11867;51.198;11.966;2024-03-08T01:29:08;101005.09;;;-0.37;93.86
32733;BME280;11867;51.198;11.966;2024-03-08T01:34:31;100998.78;;;-0.01;92.79
32733;BME280;11867;51.198;11.966;2024-03-08T01:39:56;101002.09;;;0.64;89.19
32733;BME280;11867;51.198;11.966;2024-03-08T01:45:19;100988.16;;;0.47;87.79
32733;BME280;11867;51.198;11.966;2024-03-08T01:50:42;100984.56;;;-0.02;90.63
32733;BME280;11867;51.198;11.966;2024-03-08T01:56:06;100979.84;;;-0.21;92.16
32733;BME280;11867;51.198;11.966;2024-03-08T02:01:30;100967.72;;;-0.67;96.42
32733;BME280;11867;51.198;11.966;2024-03-08T02:06:54;100974.06;;;-0.46;95.09
32733;BME280;11867;51.198;11.966;2024-03-08T02:12:18;100972.09;;;-0.37;92.61
32733;BME280;11867;51.198;11.966;2024-03-08T02:17:42;100971.16;;;-0.51;93.52
32733;BME280;11867;51.198;11.966;2024-03-08T02:23:07;100957.38;;;-0.48;93.46
32733;BME280;11867;51.198;11.966;2024-03-08T02:28:30;100961.66;;;0.31;89.26
32733;BME280;11867;51.198;11.966;2024-03-08T02:33:53;100959.75;;;-0.10;91.56
32733;BME280;11867;51.198;11.966;2024-03-08T02:39:17;100957.72;;;-0.30;91.71
32733;BME280;11867;51.198;11.966;2024-03-08T02:44:42;100945.00;;;-0.49;93.61
32733;BME280;11867;51.198;11.966;2024-03-08T02:50:06;100955.41;;;-0.83;93.80
32733;BME280;11867;51.198;11.966;2024-03-08T02:55:32;100954.63;;;-0.55;95.03
32733;BME280;11867;51.198;11.966;2024-03-08T03:00:57;100948.38;;;-0.84;96.38
32733;BME280;11867;51.198;11.966;2024-03-08T03:06:20;100948.00;;;-0.09;91.39
32733;BME280;11867;51.198;11.966;2024-03-08T03:11:48;100948.56;;;-1.07;94.34
32733;BME280;11867;51.198;11.966;2024-03-08T03:17:11;100938.47;;;-0.40;94.31
32733;BME280;11867;51.198;11.966;2024-03-08T03:22:33;100936.84;;;-0.63;90.72
32733;BME280;11867;51.198;11.966;2024-03-08T03:27:58;100928.66;;;-0.33;92.29
32733;BME280;11867;51.198;11.966;2024-03-08T03:33:21;100932.84;;;0.05;88.03
32733;BME280;11867;51.198;11.966;2024-03-08T03:38:44;100929.22;;;-0.09;88.67
32733;BME280;11867;51.198;11.966;2024-03-08T03:44:08;100932.66;;;-0.72;90.75
32733;BME280;11867;51.198;11.966;2024-03-08T03:49:31;100936.69;;;-1.19;94.34
32733;BME280;11867;51.198;11.966;2024-03-08T03:54:54;100929.06;;;-1.00;94.00
32733;BME280;11867;51.198;11.966;2024-03-08T04:00:20;100917.81;;;-0.74;93.53
32733;BME280;11867;51.198;11.966;2024-03-08T04:05:42;100921.16;;;-1.09;95.79
32733;BME280;11867;51.198;11.966;2024-03-08T04:11:05;100909.25;;;-0.63;92.05
32733;BME280;11867;51.198;11.966;2024-03-08T04:16:30;100914.66;;;-0.56;92.03
32733;BME280;11867;51.198;11.966;2024-03-08T04:21:53;100922.19;;;-0.88;91.87
32733;BME280;11867;51.198;11.966;2024-03-08T04:27:16;100921.81;;;-0.35;89.91
32733;BME280;11867;51.198;11.966;2024-03-08T04:32:40;100915.44;;;-0.34;89.18
32733;BME280;11867;51.198;11.966;2024-03-08T04:38:04;100904.16;;;-0.30;88.16
32733;BME280;11867;51.198;11.966;2024-03-08T04:43:28;100899.91;;;-0.17;88.32
32733;BME280;11867;51.198;11.966;2024-03-08T04:48:53;100903.84;;;-0.42;89.34
32733;BME280;11867;51.198;11.966;2024-03-08T04:54:16;100904.78;;;-0.28;88.41
32733;BME280;11867;51.198;11.966;2024-03-08T04:59:39;100900.94;;;-0.18;88.14
32733;BME280;11867;51.198;11.966;2024-03-08T05:05:04;100896.03;;;-1.08;90.61
32733;BME280;11867;51.198;11.966;2024-03-08T05:10:27;100902.63;;;-1.47;95.15
32733;BME280;11867;51.198;11.966;2024-03-08T05:15:50;100896.03;;;-1.08;95.25
32733;BME280;11867;51.198;11.966;2024-03-08T05:21:15;100881.41;;;-0.62;92.72
32733;BME280;11867;51.198;11.966;2024-03-08T05:26:41;100879.88;;;-0.78;91.27
32733;BME280;11867;51.198;11.966;2024-03-08T05:32:05;100883.19;;;-0.19;88.77
32733;BME280;11867;51.198;11.966;2024-03-08T05:37:31;100877.94;;;-0.06;87.76
32733;BME280;11867;51.198;11.966;2024-03-08T05:42:54;100879.91;;;-0.15;87.05
32733;BME280;11867;51.198;11.966;2024-03-08T05:48:20;100875.72;;;-0.31;88.05
32733;BME280;11867;51.198;11.966;2024-03-08T05:53:45;100879.09;;;-0.44;90.17
32733;BME280;11867;51.198;11.966;2024-03-08T05:59:08;100879.09;;;-0.15;89.13
32733;BME280;11867;51.198;11.966;2024-03-08T06:04:31;100883.50;;;-0.01;87.83
32733;BME280;11867;51.198;11.966;2024-03-08T06:09:56;100880.41;;;0.02;87.95
32733;BME280;11867;51.198;11.966;2024-03-08T06:15:19;100883.47;;;-0.08;89.32
32733;BME280;11867;51.198;11.966;2024-03-08T06:20:42;100879.09;;;0.26;88.71
32733;BME280;11867;51.198;11.966;2024-03-08T06:26:07;100877.66;;;0.24;88.99
32733;BME280;11867;51.198;11.966;2024-03-08T06:31:30;100873.88;;;0.11;89.69
32733;BME280;11867;51.198;11.966;2024-03-08T06:36:53;100861.94;;;0.20;89.61
32733;BME280;11867;51.198;11.966;2024-03-08T06:42:23;100866.28;;;-0.20;91.50
32733;BME280;11867;51.198;11.966;2024-03-08T06:47:47;100865.94;;;0.31;90.23
32733;BME280;11867;51.198;11.966;2024-03-08T06:53:10;100865.97;;;0.38;89.44
32733;BME280;11867;51.198;11.966;2024-03-08T06:58:34;100861.59;;;0.37;90.66
32733;BME280;11867;51.198;11.966;2024-03-08T07:03:57;100860.50;;;0.79;90.30
32733;BME280;11867;51.198;11.966;2024-03-08T07:09:21;100863.00;;;1.01;89.05
32733;BME280;11867;51.198;11.966;2024-03-08T07:14:45;100872.94;;;1.27;88.77
32733;BME280;11867;51.198;11.966;2024-03-08T07:20:09;100870.03;;;1.49;88.39
32733;BME280;11867;51.198;11.966;2024-03-08T07:25:34;100864.63;;;1.89;88.32
32733;BME280;11867;51.198;11.966;2024-03-08T07:30:58;100862.97;;;1.88;89.76
32733;BME280;11867;51.198;11.966;2024-03-08T07:36:38;100855.44;;;2.16;89.91
32733;BME280;11867;51.198;11.966;2024-03-08T07:42:04;100846.75;;;2.14;90.10
32733;BME280;11867;51.198;11.966;2024-03-08T07:47:29;100846.47;;;1.51;92.71
32733;BME280;11867;51.198;11.966;2024-03-08T07:52:54;100848.53;;;1.82;91.71
32733;BME280;11867;51.198;11.966;2024-03-08T07:58:19;100843.53;;;1.86;91.96
32733;BME280;11867;51.198;11.966;2024-03-08T08:03:44;100839.84;;;2.38;91.50
32733;BME280;11867;51.198;11.966;2024-03-08T08:09:07;100840.38;;;2.54;90.76
32733;BME280;11867;51.198;11.966;2024-03-08T08:14:35;100826.16;;;2.78;90.75
32733;BME280;11867;51.198;11.966;2024-03-08T08:20:00;100817.53;;;3.20;88.44
32733;BME280;11867;51.198;11.966;2024-03-08T08:25:26;100812.72;;;2.72;90.43
32733;BME280;11867;51.198;11.966;2024-03-08T08:30:50;100806.50;;;3.03;89.52
32733;BME280;11867;51.198;11.966;2024-03-08T08:36:15;100795.28;;;3.06;90.50
32733;BME280;11867;51.198;11.966;2024-03-08T08:41:38;100794.94;;;3.46;89.00
32733;BME280;11867;51.198;11.966;2024-03-08T08:47:01;100789.28;;;3.29;87.50
32733;BME280;11867;51.198;11.966;2024-03-08T08:52:34;100784.16;;;4.01;85.37
32733;BME280;11867;51.198;11.966;2024-03-08T08:58:01;100778.47;;;3.73;87.46
32733;BME280;11867;51.198;11.966;2024-03-08T09:03:24;100772.78;;;4.30;85.00
32733;BME280;11867;51.198;11.966;2024-03-08T09:08:50;100773.38;;;4.62;83.67
32733;BME280;11867;51.198;11.966;2024-03-08T09:14:13;100762.97;;;4.89;82.92
32733;BME280;11867;51.198;11.966;2024-03-08T09:19:36;100766.88;;;4.93;83.45
32733;BME280;11867;51.198;11.966;2024-03-08T09:25:01;100758.06;;;5.10;79.83
32733;BME280;11867;51.198;11.966;2024-03-08T09:30:25;100756.06;;;5.52;80.11
32733;BME280;11867;51.198;11.966;2024-03-08T09:35:48;100746.78;;;5.48;77.70
32733;BME280;11867;51.198;11.966;2024-03-08T09:41:14;100731.00;;;5.69;77.16
32733;BME280;11867;51.198;11.966;2024-03-08T09:46:37;100726.47;;;5.86;75.32
32733;BME280;11867;51.198;11.966;2024-03-08T09:52:00;100717.88;;;6.46;74.47
32733;BME280;11867;51.198;11.966;2024-03-08T09:57:28;100713.22;;;6.59;72.86
32733;BME280;11867;51.198;11.966;2024-03-08T10:02:51;100694.06;;;6.32;72.11
32733;BME280;11867;51.198;11.966;2024-03-08T10:08:15;100692.22;;;6.66;72.24
32733;BME280;11867;51.198;11.966;2024-03-08T10:13:40;100679.00;;;6.86;71.76
32733;BME280;11867;51.198;11.966;2024-03-08T10:19:05;100677.75;;;7.33;69.22
32733;BME280;11867;51.198;11.966;2024-03-08T10:24:28;100667.00;;;7.38;68.49
32733;BME280;11867;51.198;11.966;2024-03-08T10:29:53;100675.13;;;7.60;69.13
32733;BME280;11867;51.198;11.966;2024-03-08T10:35:16;100659.84;;;8.31;65.72
32733;BME280;11867;51.198;11.966;2024-03-08T10:40:42;100655.91;;;9.76;61.84
32733;BME280;11867;51.198;11.966;2024-03-08T10:46:16;100662.59;;;10.62;59.64
32733;BME280;11867;51.198;11.966;2024-03-08T10:51:45;100647.84;;;10.79;58.98
32733;BME280;11867;51.198;11.966;2024-03-08T10:57:09;100648.91;;;10.16;60.39
32733;BME280;11867;51.198;11.966;2024-03-08T11:02:36;100642.66;;;11.73;57.59
32733;BME280;11867;51.198;11.966;2024-03-08T11:07:59;100631.50;;;12.48;55.22
32733;BME280;11867;51.198;11.966;2024-03-08T11:13:35;100624.53;;;12.96;54.56
32733;BME280;11867;51.198;11.966;2024-03-08T11:19:05;100620.13;;;13.24;54.81
32733;BME280;11867;51.198;11.966;2024-03-08T11:24:38;100614.19;;;13.41;54.59
32733;BME280;11867;51.198;11.966;2024-03-08T11:30:05;100597.84;;;14.11;52.34
32733;BME280;11867;51.198;11.966;2024-03-08T11:35:41;100597.44;;;12.01;56.07
32733;BME280;11867;51.198;11.966;2024-03-08T11:41:07;100593.03;;;10.19;59.77
32733;BME280;11867;51.198;11.966;2024-03-08T11:46:30;100571.88;;;12.80;55.12
32733;BME280;11867;51.198;11.966;2024-03-08T11:51:55;100577.09;;;12.18;55.26
32733;BME280;11867;51.198;11.966;2024-03-08T11:57:18;100553.66;;;13.42;52.53
32733;BME280;11867;51.198;11.966;2024-03-08T12:02:41;100554.91;;;11.85;55.96
32733;BME280;11867;51.198;11.966;2024-03-08T12:08:13;100534.91;;;13.87;53.97
32733;BME280;11867;51.198;11.966;2024-03-08T12:13:36;100536.06;;;15.71;51.66
32733;BME280;11867;51.198;11.966;2024-03-08T12:19:01;100534.97;;;13.01;55.63
32733;BME280;11867;51.198;11.966;2024-03-08T12:24:27;100516.41;;;13.41;56.45
32733;BME280;11867;51.198;11.966;2024-03-08T12:29:52;100510.56;;;14.93;52.31
32733;BME280;11867;51.198;11.966;2024-03-08T12:35:20;100497.66;;;13.86;54.64
32733;BME280;11867;51.198;11.966;2024-03-08T12:40:45;100492.81;;;13.64;55.15
32733;BME280;11867;51.198;11.966;2024-03-08T12:46:08;100487.69;;;14.70;53.58
32733;BME280;11867;51.198;11.966;2024-03-08T12:51:31;100485.78;;;12.48;57.64
32733;BME280;11867;51.198;11.966;2024-03-08T12:56:56;100473.53;;;16.00;52.07
32733;BME280;11867;51.198;11.966;2024-03-08T13:02:20;100460.38;;;15.15;53.87
32733;BME280;11867;51.198;11.966;2024-03-08T13:07:43;100456.06;;;13.65;55.57
32733;BME280;11867;51.198;11.966;2024-03-08T13:13:10;100445.13;;;15.23;52.38
32733;BME280;11867;51.198;11.966;2024-03-08T13:18:33;100433.09;;;16.80;50.87
32733;BME280;11867;51.198;11.966;2024-03-08T13:23:56;100427.78;;;16.04;51.14
32733;BME280;11867;51.198;11.966;2024-03-08T13:29:22;100425.66;;;13.29;54.99
32733;BME280;11867;51.198;11.966;2024-03-08T13:34:45;100414.31;;;13.87;55.22
32733;BME280;11867;51.198;11.966;2024-03-08T13:40:09;100412.66;;;15.84;50.49
32733;BME280;11867;51.198;11.966;2024-03-08T13:45:36;100395.50;;;14.41;53.15
32733;BME280;11867;51.198;11.966;2024-03-08T13:51:00;100398.94;;;14.19;54.73
32733;BME280;11867;51.198;11.966;2024-03-08T13:56:23;100396.06;;;13.64;55.39
32733;BME280;11867;51.198;11.966;2024-03-08T14:01:47;100382.22;;;16.20;50.58
32733;BME280;11867;51.198;11.966;2024-03-08T14:07:10;100385.56;;;15.77;50.61
32733;BME280;11867;51.198;11.966;2024-03-08T14:12:33;100363.00;;;14.62;52.04
32733;BME280;11867;51.198;11.966;2024-03-08T14:17:58;100347.81;;;14.79;52.67
32733;BME280;11867;51.198;11.966;2024-03-08T14:23:21;100349.06;;;13.05;55.75
32733;BME280;11867;51.198;11.966;2024-03-08T14:28:44;100334.97;;;13.49;54.42
32733;BME280;11867;51.198;11.966;2024-03-08T14:34:09;100325.69;;;14.33;53.11
32733;BME280;11867;51.198;11.966;2024-03-08T14:39:32;100331.81;;;15.93;50.70
32733;BME280;11867;51.198;11.966;2024-03-08T14:44:55;100319.63;;;14.09;53.95
32733;BME280;11867;51.198;11.966;2024-03-08T14:50:21;100302.78;;;15.25;52.60
32733;BME280;11867;51.198;11.966;2024-03-08T14:55:45;100296.53;;;13.55;55.07
32733;BME280;11867;51.198;11.966;2024-03-08T15:01:09;100291.41;;;12.82;55.83
32733;BME280;11867;51.198;11.966;2024-03-08T15:06:37;100295.97;;;12.87;57.10
32733;BME280;11867;51.198;11.966;2024-03-08T15:12:00;100289.59;;;13.10;56.54
32733;BME280;11867;51.198;11.966;2024-03-08T15:17:23;100291.78;;;12.76;57.58
32733;BME280;11867;51.198;11.966;2024-03-08T15:22:47;100285.81;;;11.58;60.49
32733;BME280;11867;51.198;11.966;2024-03-08T15:28:10;100279.38;;;10.80;62.50
32733;BME280;11867;51.198;11.966;2024-03-08T15:33:37;100276.53;;;10.61;63.94
32733;BME280;11867;51.198;11.966;2024-03-08T15:39:08;100262.13;;;9.90;66.27
32733;BME280;11867;51.198;11.966;2024-03-08T15:44:32;100258.41;;;9.66;66.83
32733;BME280;11867;51.198;11.966;2024-03-08T15:49:55;100250.22;;;9.61;67.78
32733;BME280;11867;51.198;11.966;2024-03-08T15:55:20;100242.69;;;9.37;68.99
32733;BME280;11867;51.198;11.966;2024-03-08T16:00:46;100255.47;;;9.32;69.26
32733;BME280;11867;51.198;11.966;2024-03-08T16:06:09;100242.16;;;9.25;70.19
32733;BME280;11867;51.198;11.966;2024-03-08T16:11:34;100239.16;;;9.21;70.30
32733;BME280;11867;51.198;11.966;2024-03-08T16:16:59;100235.34;;;8.97;71.40
32733;BME280;11867;51.198;11.966;2024-03-08T16:22:22;100234.53;;;9.22;70.92
32733;BME280;11867;51.198;11.966;2024-03-08T16:27:47;100227.50;;;8.85;72.19
32733;BME280;11867;51.198;11.966;2024-03-08T16:33:10;100221.75;;;8.66;73.21
32733;BME280;11867;51.198;11.966;2024-03-08T16:38:33;100218.41;;;8.28;74.52
32733;BME280;11867;51.198;11.966;2024-03-08T16:44:00;100211.34;;;8.17;75.43
32733;BME280;11867;51.198;11.966;2024-03-08T16:49:25;100225.19;;;8.20;75.62
32733;BME280;11867;51.198;11.966;2024-03-08T16:54:52;100221.84;;;7.93;76.78
32733;BME280;11867;51.198;11.966;2024-03-08T17:00:29;100223.41;;;7.73;77.59
32733;BME280;11867;51.198;11.966;2024-03-08T17:05:54;100226.03;;;7.58;78.70
32733;BME280;11867;51.198;11.966;2024-03-08T17:11:20;100218.13;;;7.51;79.65
32733;BME280;11867;51.198;11.966;2024-03-08T17:16:45;100220.84;;;7.51;79.95
32733;BME280;11867;51.198;11.966;2024-03-08T17:22:09;100222.41;;;7.37;80.52
32733;BME280;11867;51.198;11.966;2024-03-08T17:27:32;100215.59;;;7.34;81.34
32733;BME280;11867;51.198;11.966;2024-03-08T17:33:03;100222.88;;;7.28;81.55
32733;BME280;11867;51.198;11.966;2024-03-08T17:38:30;100220.78;;;7.41;81.22
32733;BME280;11867;51.198;11.966;2024-03-08T17:43:53;100219.66;;;7.84;79.39
32733;BME280;11867;51.198;11.966;2024-03-08T17:49:18;100216.59;;;7.65;79.78
32733;BME280;11867;51.198;11.966;2024-03-08T17:54:43;100217.53;;;7.39;81.07
32733;BME280;11867;51.198;11.966;2024-03-08T18:00:10;100213.47;;;6.99;83.43
32733;BME280;11867;51.198;11.966;2024-03-08T18:05:40;100212.19;;;6.74;83.78
32733;BME280;11867;51.198;11.966;2024-03-08T18:11:07;100215.38;;;6.12;86.79
32733;BME280;11867;51.198;11.966;2024-03-08T18:16:31;100213.94;;;6.04;86.90
32733;BME280;11867;51.198;11.966;2024-03-08T18:21:57;100211.00;;;6.33;86.04
32733;BME280;11867;51.198;11.966;2024-03-08T18:27:22;100204.63;;;5.95;88.17
32733;BME280;11867;51.198;11.966;2024-03-08T18:32:50;100200.28;;;6.43;86.64
32733;BME280;11867;51.198;11.966;2024-03-08T18:38:15;100194.66;;;6.22;85.93
32733;BME280;11867;51.198;11.966;2024-03-08T18:43:41;100188.19;;;7.31;80.22
32733;BME280;11867;51.198;11.966;2024-03-08T18:49:04;100192.84;;;7.40;78.38
32733;BME280;11867;51.198;11.966;2024-03-08T18:54:29;100192.13;;;7.60;77.36
32733;BME280;11867;51.198;11.966;2024-03-08T18:59:54;100189.09;;;7.46;77.39
32733;BME280;11867;51.198;11.966;2024-03-08T19:05:22;100195.00;;;6.31;83.98
32733;BME280;11867;51.198;11.966;2024-03-08T19:10:48;100181.06;;;6.77;81.90
32733;BME280;11867;51.198;11.966;2024-03-08T19:16:13;100178.75;;;6.96;80.65
32733;BME280;11867;51.198;11.966;2024-03-08T19:21:43;100171.25;;;7.08;79.29
32733;BME280;11867;51.198;11.966;2024-03-08T19:27:08;100176.56;;;6.55;81.29
32733;BME280;11867;51.198;11.966;2024-03-08T19:32:34;100172.28;;;6.05;83.65
32733;BME280;11867;51.198;11.966;2024-03-08T19:37:58;100168.81;;;5.21;87.89
32733;BME280;11867;51.198;11.966;2024-03-08T19:43:22;100177.31;;;5.30;87.81
32733;BME280;11867;51.198;11.966;2024-03-08T19:48:48;100159.03;;;4.98;89.76
32733;BME280;11867;51.198;11.966;2024-03-08T19:54:11;100160.19;;;5.24;89.30
32733;BME280;11867;51.198;11.966;2024-03-08T19:59:40;100161.66;;;5.32;88.78
32733;BME280;11867;51.198;11.966;2024-03-08T20:05:07;100153.53;;;4.93;92.01
32733;BME280;11867;51.198;11.966;2024-03-08T20:10:31;100145.94;;;4.90;91.29
32733;BME280;11867;51.198;11.966;2024-03-08T20:16:03;100146.50;;;4.92;91.53
32733;BME280;11867;51.198;11.966;2024-03-08T20:21:26;100139.50;;;4.57;93.60
32733;BME280;11867;51.198;11.966;2024-03-08T20:26:49;100140.38;;;4.63;93.39
32733;BME280;11867;51.198;11.966;2024-03-08T20:32:16;100136.47;;;4.54;94.40
32733;BME280;11867;51.198;11.966;2024-03-08T20:37:41;100138.50;;;4.63;93.55
32733;BME280;11867;51.198;11.966;2024-03-08T20:43:04;100133.75;;;4.37;95.61
32733;BME280;11867;51.198;11.966;2024-03-08T20:48:31;100130.56;;;4.23;96.54
32733;BME280;11867;51.198;11.966;2024-03-08T20:53:56;100129.97;;;4.21;96.81
32733;BME280;11867;51.198;11.966;2024-03-08T20:59:19;100123.53;;;4.22;97.60
32733;BME280;11867;51.198;11.966;2024-03-08T21:04:43;100121.81;;;4.50;96.39
32733;BME280;11867;51.198;11.966;2024-03-08T21:10:10;100116.09;;;4.29;97.26
32733;BME280;11867;51.198;11.966;2024-03-08T21:15:36;100112.16;;;4.54;96.59
32733;BME280;11867;51.198;11.966;2024-03-08T21:21:00;100104.56;;;4.51;96.16
32733;BME280;11867;51.198;11.966;2024-03-08T21:26:25;100098.78;;;4.81;93.86
32733;BME280;11867;51.198;11.966;2024-03-08T21:31:48;100100.41;;;4.99;92.06
32733;BME280;11867;51.198;11.966;2024-03-08T21:37:16;100082.69;;;5.52;89.02
32733;BME280;11867;51.198;11.966;2024-03-08T21:42:47;100080.56;;;5.81;85.82
32733;BME280;11867;51.198;11.966;2024-03-08T21:48:10;100085.31;;;5.74;85.25
32733;BME280;11867;51.198;11.966;2024-03-08T21:53:35;100074.44;;;5.20;88.61
32733;BME280;11867;51.198;11.966;2024-03-08T21:58:59;100072.00;;;4.57;91.41
32733;BME280;11867;51.198;11.966;2024-03-08T22:04:23;100071.41;;;3.59;97.24
32733;BME280;11867;51.198;11.966;2024-03-08T22:09:52;100059.97;;;3.52;99.46
32733;BME280;11867;51.198;11.966;2024-03-08T22:15:17;100054.66;;;3.57;99.81
32733;BME280;11867;51.198;11.966;2024-03-08T22:20:40;100043.69;;;4.09;94.17
32733;BME280;11867;51.198;11.966;2024-03-08T22:26:04;100034.59;;;3.64;96.82
32733;BME280;11867;51.198;11.966;2024-03-08T22:31:32;100034.38;;;4.17;93.24
32733;BME280;11867;51.198;11.966;2024-03-08T22:36:56;100033.75;;;3.93;93.06
32733;BME280;11867;51.198;11.966;2024-03-08T22:42:20;100034.47;;;4.05;92.84
32733;BME280;11867;51.198;11.966;2024-03-08T22:47:44;100028.09;;;4.11;92.51
32733;BME280;11867;51.198;11.966;2024-03-08T22:53:08;100018.50;;;4.37;90.54
32733;BME280;11867;51.198;11.966;2024-03-08T22:58:37;100020.44;;;4.59;88.38
32733;BME280;11867;51.198;11.966;2024-03-08T23:04:03;100022.78;;;4.16;90.03
32733;BME280;11867;51.198;11.966;2024-03-08T23:09:30;100023.59;;;4.00;90.68
32733;BME280;11867;51.198;11.966;2024-03-08T23:14:57;100018.19;;;3.83;92.33
32733;BME280;11867;51.198;11.966;2024-03-08T23:20:21;100013.91;;;3.53;92.63
32733;BME280;11867;51.198;11.966;2024-03-08T23:25:54;100008.81;;;3.86;91.20
32733;BME280;11867;51.198;11.966;2024-03-08T23:31:18;100011.31;;;4.09;89.87
32733;BME280;11867;51.198;11.966;2024-03-08T23:36:41;100002.88;;;4.39;87.63
32733;BME280;11867;51.198;11.966;2024-03-08T23:42:04;100013.75;;;3.60;91.87
32733;BME280;11867;51.198;11.966;2024-03-08T23:47:31;100012.31;;;4.03;90.24
32733;BME280;11867;51.198;11.966;2024-03-08T23:52:55;100019.44;;;4.65;86.08
32733;BME280;11867;51.198;11.966;2024-03-08T23:58:21;100013.72;;;4.61;85.60
